Partageons !

La quantité de CO2 ne cesse d’augmenter depuis le début du dé-confinement.
Même si la part “mondialisée” tourne autour de 400ppm, nous sommes en permanence au dessus, largement au dessus.
Or, il n’y a plus de chauffage (ou presque)… il reste les barbucs, les fours à bois, l’agriculture et la mobilité (Camion, bus, voiture, moto).

Si je fais une moyenne sur 1 semaine équivalente, le relevé du 26 avril, celui du 24 mai et celui du 22 juin, ça nous donne

Une moyenne de 423 pour la 3e semaine d’avril (100% Confiné)
Une moyenne de 438 pour la 3e semaine de mai (Déconfinement partiel phase 1 a-b)
Une moyenne de 457 pour la 3e semaine de juin (Déconfinement  partiel  phase 1-2-3)
Et en juillet ? Lorsque tout sera à nouveau ouvert ?

Édifiant non ?

Quant je pense qu’il  y en toujours des gens  qui trouvent qu’on peut encore monter des projets autour de la mobilité CO2…
Je cite ici le journal “Le Monde” dans son édition du 17 avril:
“L’actuelle pandémie de Covid-19 vient cruellement nous rappeler le fait, trop longtemps négligé, tant dans les priorités de recherche que dans les politiques publiques, que santé humaine, santé animale et santé des écosystèmes sont étroitement liées, que l’une ne va pas sans les autres, comme le souligne l’approche interdisciplinaire dite « une seule santé » (One Health).”

Le relevé

Enregistrement Heure Temp(℃) Humi(%RH) DP(℃) point de rosée CO2(PPM)
1 06-15-20 08:56:55 22,6 59,4 30,6 441
2 06-15-20 10:56:55 27,7 46,6 23,4 413
3 06-15-20 12:56:55 29,8 42 20,7 416
4 06-15-20 14:56:55 27,3 44,4 21,3 411
5 06-15-20 16:56:55 27,5 43,9 21 415
6 06-15-20 18:56:55 26,1 47,6 23,3 412
7 06-15-20 20:56:55 22,6 62,7 33,2 425
8 06-15-20 22:56:55 20,3 66,6 34,5 486
9 06-16-20 00:56:55 17,7 71,3 35,7 529
10 06-16-20 02:56:55 16 73,2 35,3 507
11 06-16-20 04:56:55 14,6 73,7 34,1 695
12 06-16-20 06:56:55 13,9 77,5 36,1 589
13 06-16-20 08:56:55 18 73,7 37,9 469
14 06-16-20 10:56:55 25,9 53,3 27,9 411
15 06-16-20 12:56:55 28,8 43,7 21,6 410
16 06-16-20 14:56:55 27,1 46,1 22,6 406
17 06-16-20 16:56:55 22,6 68,6 38 408
18 06-16-20 18:56:55 22,2 72,4 40,8 402
19 06-16-20 20:56:55 22 71,8 40,1 410
20 06-16-20 22:56:55 19,8 74,6 40,4 457
21 06-17-20 00:56:55 18,9 76,2 40,8 476
22 06-17-20 02:56:55 18,2 78,4 41,8 522
23 06-17-20 04:56:55 17,5 78,8 41,3 595
24 06-17-20 06:56:55 17,2 81 42,7 561
25 06-17-20 08:56:55 21,8 74,6 42,2 472
26 06-17-20 10:56:55 22,9 70,4 39,7 425
27 06-17-20 12:56:55 23,1 70,1 39,7 414
28 06-17-20 14:56:55 20,2 77,1 42,7 407
29 06-17-20 16:56:55 18 84 45,9 406
30 06-17-20 18:56:55 17,6 83,2 44,9 412
31 06-17-20 20:56:55 16,5 85 45 416
32 06-17-20 22:56:55 16,3 84,4 44,3 437
33 06-18-20 00:56:55 15,8 85,9 44,8 425
34 06-18-20 02:56:55 15,5 85,7 44,3 431
35 06-18-20 04:56:55 15,3 84,8 43,4 459
36 06-18-20 06:56:55 14,8 85,9 43,6 469
37 06-18-20 08:56:55 20,2 85,1 49,1 408
38 06-18-20 10:56:55 21,9 74,4 42,1 409
39 06-18-20 12:56:55 23,4 64,5 35,3 412
40 06-18-20 14:56:55 25,3 58,4 31,7 414
41 06-18-20 16:56:55 24,9 54,2 28 410
42 06-18-20 18:56:55 22,4 56,8 28,3 410
43 06-18-20 20:56:55 20,9 62,5 31,7 423
44 06-18-20 22:56:55 17,7 68,5 33,5 494
45 06-19-20 00:56:55 15 73,5 34,4 560
46 06-19-20 02:56:55 13,7 75,8 34,5 596
47 06-19-20 04:56:55 12,1 76,3 32,7 638
48 06-19-20 06:56:55 11,8 80,6 35,4 562
49 06-19-20 08:56:55 20 72,1 38,6 435
50 06-19-20 10:56:55 24,8 55 28,6 417
51 06-19-20 12:56:55 24,7 52 26 413
52 06-19-20 14:56:55 24,4 50,7 24,7 411
53 06-19-20 16:56:55 23,7 53,8 26,8 409
54 06-19-20 18:56:55 23,7 58,6 30,7 418
55 06-19-20 20:56:55 22,5 62,8 33,2 418
56 06-19-20 22:56:55 19 65,5 32,4 476
57 06-20-20 00:56:55 17,2 71,7 35,5 496
58 06-20-20 02:56:55 15,1 72,1 33,5 554
59 06-20-20 04:56:55 13,9 75,5 34,6 598
60 06-20-20 06:56:55 14,7 77,6 37,2 571
61 06-20-20 08:56:55 21,4 66,2 35,1 457
62 06-20-20 10:56:55 26,2 48,3 23,9 422
63 06-20-20 12:56:55 24,6 44,3 19,5 410
64 06-20-20 14:56:55 27,6 41,4 19 408
65 06-20-20 16:56:55 28,6 38,4 17 410
66 06-20-20 18:56:55 25,9 42,6 19 408
67 06-20-20 20:56:55 23 48,6 22 419
68 06-20-20 22:56:55 18,8 59,3 27,3 546
69 06-21-20 00:56:55 15,9 66 29,7 556
70 06-21-20 02:56:55 13,8 69,4 29,8 559
71 06-21-20 04:56:55 12,6 71,7 30 536
72 06-21-20 06:56:55 12,7 76,8 33,9 566
73 06-21-20 08:56:55 20,4 65,7 33,8 452
74 06-21-20 10:56:55 24,5 53,1 26,8 399
75 06-21-20 12:56:55 28,1 43,3 20,9 404
76 06-21-20 14:56:55 28 38,1 16,4 406
77 06-21-20 16:56:55 26,8 44,1 20,8 404
78 06-21-20 18:56:55 25,4 44,9 20,6 404
79 06-21-20 20:56:55 23,9 46,6 21 409
80 06-21-20 22:56:55 21,8 56,8 27,8 437
81 06-22-20 00:56:55 18,3 69,6 35 418
82 06-22-20 02:56:55 16,3 75,7 37,6 421
83 06-22-20 04:56:55 14,3 78,1 37 423
84 06-22-20 06:56:55 14,7 77,9 37,4 428
85 06-22-20 08:56:55 15,3 80,5 40,1 422

 


Partageons !

Laisser un commentaire

Votre adresse de messagerie ne sera pas publiée. Les champs obligatoires sont indiqués avec *

nine + 1 =